Terminal Aerodrome Forecast
Issued by NWS

Home | Current Version | Previous Version | Text Only | Print | Product List | Glossary On
Versions: 1 2 3 4 5 6 7 8 9 10 11 12 13 14 15 16 17 18
000
FTUS45 KRIW 302028 AAA
TAFCOD
TAF AMD
KCOD 302028Z 3020/0118 24012KT P6SM SCT070 BKN100
     FM010800 36011KT P6SM VCSH BKN060
     FM011000 36010KT P6SM BKN080
     FM011500 33013G23KT P6SM SCT050 BKN150
      AMD LTD TO CLD VIS AND WIND=

USA.gov is the U.S. government's official web portal to all federal, state and local government web resources and services.